createdAt,value
2023-01-22T00:01:13.583Z,15.02
2023-01-22T00:04:00.134Z,17.08
2023-01-22T00:06:46.088Z,15.65
2023-01-22T00:09:32.047Z,16.48
2023-01-22T00:12:17.961Z,19.58
2023-01-22T00:15:04.277Z,20.45
2023-01-22T00:17:50.349Z,19.25
2023-01-22T00:20:36.166Z,21.55
2023-01-22T00:23:22.924Z,19.65
2023-01-22T00:26:14.068Z,19.75
2023-01-22T00:29:00.346Z,19.00
2023-01-22T00:31:46.754Z,16.15
2023-01-22T00:34:34.095Z,16.73
2023-01-22T00:37:20.395Z,16.38
2023-01-22T00:40:07.282Z,15.73
2023-01-22T00:42:53.192Z,15.73
2023-01-22T00:45:39.998Z,13.30
2023-01-22T00:48:25.924Z,11.32
2023-01-22T00:51:13.255Z,11.70
2023-01-22T00:53:59.254Z,11.75
2023-01-22T00:56:45.424Z,11.70
2023-01-22T00:59:31.228Z,11.25
2023-01-22T01:02:17.269Z,11.40
2023-01-22T01:05:03.714Z,12.10
2023-01-22T01:07:49.428Z,12.45
2023-01-22T01:10:35.374Z,11.18
2023-01-22T01:13:21.338Z,11.73
2023-01-22T01:16:11.195Z,12.32
2023-01-22T01:19:05.707Z,10.80
2023-01-22T01:21:51.437Z,12.05
2023-01-22T01:24:37.291Z,11.02
2023-01-22T01:27:23.050Z,11.52
2023-01-22T01:30:10.452Z,10.93
2023-01-22T01:32:56.509Z,10.80
2023-01-22T01:35:42.491Z,9.55
2023-01-22T01:38:28.350Z,10.05
2023-01-22T01:41:16.868Z,9.65
2023-01-22T01:44:16.124Z,9.50
2023-01-22T01:47:07.679Z,10.30
2023-01-22T01:49:53.681Z,8.93
2023-01-22T01:52:39.965Z,9.45
2023-01-22T01:55:28.719Z,10.00
2023-01-22T01:58:21.490Z,10.40
2023-01-22T02:01:17.666Z,10.63
2023-01-22T02:04:04.060Z,10.85
2023-01-22T02:06:50.212Z,9.75
2023-01-22T02:09:36.790Z,11.55
2023-01-22T02:12:22.833Z,10.18
2023-01-22T02:15:09.611Z,11.13
2023-01-22T02:17:55.649Z,11.48
2023-01-22T02:20:50.006Z,10.68
2023-01-22T02:23:35.722Z,10.70
2023-01-22T02:26:23.089Z,9.68
2023-01-22T02:29:11.189Z,11.00
2023-01-22T02:31:57.354Z,10.27
2023-01-22T02:34:43.034Z,9.95
2023-01-22T02:37:28.979Z,9.88
2023-01-22T02:40:15.410Z,10.93
2023-01-22T02:43:02.148Z,9.27
2023-01-22T02:45:48.175Z,8.75
2023-01-22T02:48:33.911Z,8.27
2023-01-22T02:51:19.899Z,8.75
2023-01-22T02:54:08.259Z,9.38
2023-01-22T02:56:54.171Z,7.18
2023-01-22T02:59:40.001Z,6.07
2023-01-22T03:02:28.964Z,5.45
2023-01-22T03:05:15.657Z,5.72
2023-01-22T03:08:01.657Z,5.38
2023-01-22T03:10:48.291Z,5.15
2023-01-22T03:13:52.832Z,4.75
2023-01-22T03:16:57.663Z,3.67
2023-01-22T03:20:02.411Z,3.65
2023-01-22T03:22:48.652Z,4.03
2023-01-22T03:25:34.966Z,3.70
2023-01-22T03:28:21.815Z,3.75
2023-01-22T03:31:15.073Z,8.10
2023-01-22T03:34:01.405Z,20.52
2023-01-22T03:36:48.455Z,37.53
2023-01-22T03:39:35.486Z,58.17
2023-01-22T03:42:25.297Z,56.83
2023-01-22T03:45:12.210Z,50.90
2023-01-22T03:47:58.977Z,47.10
2023-01-22T03:50:52.287Z,46.30
2023-01-22T03:53:39.583Z,45.50
2023-01-22T03:56:26.934Z,42.63
2023-01-22T03:59:18.154Z,46.70
2023-01-22T04:02:04.631Z,36.13
2023-01-22T04:04:56.585Z,33.35
2023-01-22T04:07:43.196Z,29.52
2023-01-22T04:10:30.077Z,28.73
2023-01-22T04:13:18.623Z,28.73
2023-01-22T04:16:07.803Z,27.80
2023-01-22T04:19:15.070Z,25.13
2023-01-22T04:22:27.738Z,25.60
2023-01-22T04:25:16.805Z,21.52
2023-01-22T04:28:05.594Z,21.70
2023-01-22T04:30:56.306Z,21.55
2023-01-22T04:34:03.596Z,18.83
2023-01-22T04:36:52.983Z,17.75
2023-01-22T04:39:44.307Z,19.20
2023-01-22T04:42:31.369Z,21.17
2023-01-22T04:45:19.798Z,19.23
2023-01-22T04:48:09.226Z,19.00
2023-01-22T04:50:58.270Z,18.98
2023-01-22T04:53:48.741Z,21.52
2023-01-22T04:56:36.493Z,20.65
2023-01-22T04:59:23.809Z,21.10
2023-01-22T05:02:10.935Z,21.65
2023-01-22T05:04:58.173Z,21.92
2023-01-22T05:07:45.389Z,23.42
2023-01-22T05:10:32.775Z,21.88
2023-01-22T05:13:21.333Z,21.00
2023-01-22T05:16:08.856Z,21.25
2023-01-22T05:18:56.307Z,21.75
2023-01-22T05:21:44.701Z,22.65
2023-01-22T05:24:36.093Z,22.48
2023-01-22T05:27:23.219Z,24.15
2023-01-22T05:30:20.965Z,23.00
2023-01-22T05:33:19.349Z,21.30
2023-01-22T05:36:09.593Z,19.77
2023-01-22T05:39:02.172Z,21.83
2023-01-22T05:41:49.858Z,21.15
2023-01-22T05:44:38.516Z,22.92
2023-01-22T05:47:25.952Z,22.08
2023-01-22T05:50:29.304Z,21.23
2023-01-22T05:53:24.789Z,20.85
2023-01-22T05:56:13.205Z,20.88
2023-01-22T05:59:01.481Z,21.65
2023-01-22T06:01:49.673Z,24.27
2023-01-22T06:04:37.380Z,28.48
2023-01-22T06:07:34.308Z,28.25
2023-01-22T06:10:22.193Z,32.92
2023-01-22T06:13:09.738Z,31.60
2023-01-22T06:15:57.459Z,29.67
2023-01-22T06:19:05.557Z,29.25
2023-01-22T06:22:09.961Z,25.83
2023-01-22T06:25:09.955Z,26.83
2023-01-22T06:28:27.593Z,25.20
2023-01-22T06:31:15.270Z,24.63
2023-01-22T06:34:02.687Z,25.88
2023-01-22T06:36:50.183Z,28.98
2023-01-22T06:39:38.790Z,30.30
2023-01-22T06:42:52.254Z,31.02
2023-01-22T06:45:39.655Z,31.48
2023-01-22T06:48:29.666Z,32.05
2023-01-22T06:51:18.200Z,29.92
2023-01-22T06:54:06.153Z,28.75
2023-01-22T06:56:55.041Z,30.58
2023-01-22T06:59:44.625Z,30.77
2023-01-22T07:02:31.986Z,30.05
2023-01-22T07:05:23.149Z,30.52
2023-01-22T07:08:18.306Z,31.70
2023-01-22T07:11:07.890Z,30.55
2023-01-22T07:13:55.302Z,30.90
2023-01-22T07:16:42.743Z,31.80
2023-01-22T07:19:30.269Z,32.33
2023-01-22T07:22:17.311Z,32.22
2023-01-22T07:25:05.285Z,30.10
2023-01-22T07:27:53.894Z,32.85
2023-01-22T07:30:43.746Z,30.05
2023-01-22T07:33:29.721Z,35.25
2023-01-22T07:36:15.531Z,31.63
2023-01-22T07:39:05.671Z,31.33
2023-01-22T07:41:51.544Z,33.40
2023-01-22T07:44:40.410Z,36.03
2023-01-22T07:47:26.337Z,32.00
2023-01-22T07:50:12.389Z,31.95
2023-01-22T07:52:58.336Z,31.73
2023-01-22T07:55:44.475Z,33.90
2023-01-22T07:58:30.603Z,35.75
2023-01-22T08:01:17.133Z,39.97
2023-01-22T08:04:03.362Z,37.67
2023-01-22T08:06:49.199Z,38.65
2023-01-22T08:09:36.247Z,39.90
2023-01-22T08:12:22.519Z,42.33
2023-01-22T08:15:09.296Z,42.20
2023-01-22T08:17:55.192Z,38.35
2023-01-22T08:20:41.093Z,40.08
2023-01-22T08:23:27.032Z,40.35
2023-01-22T08:26:13.252Z,39.67
2023-01-22T08:28:59.101Z,36.17
2023-01-22T08:31:44.870Z,38.00
2023-01-22T08:34:30.702Z,36.97
2023-01-22T08:37:16.436Z,36.88
2023-01-22T08:40:02.218Z,37.88
2023-01-22T08:42:52.557Z,38.05
2023-01-22T08:45:38.740Z,39.40
2023-01-22T08:48:24.651Z,42.15
2023-01-22T08:51:11.770Z,39.38
2023-01-22T08:53:57.679Z,40.90
2023-01-22T08:56:43.738Z,40.15
2023-01-22T08:59:31.121Z,40.08
2023-01-22T09:02:17.188Z,38.97
2023-01-22T09:05:03.062Z,40.30
2023-01-22T09:07:49.027Z,39.75
2023-01-22T09:10:34.841Z,39.80
2023-01-22T09:13:20.998Z,37.17
2023-01-22T09:16:10.946Z,39.38
2023-01-22T09:18:57.101Z,41.90
2023-01-22T09:21:43.018Z,39.20
2023-01-22T09:24:28.877Z,40.03
2023-01-22T09:27:14.738Z,42.83
2023-01-22T09:30:00.683Z,36.25
2023-01-22T09:32:46.555Z,32.15
2023-01-22T09:35:32.345Z,33.75
2023-01-22T09:38:21.023Z,33.25
2023-01-22T09:43:37.409Z,35.47
2023-01-22T09:46:48.248Z,25.42
2023-01-22T09:49:57.664Z,27.73
2023-01-22T09:52:43.904Z,26.58
2023-01-22T09:55:51.534Z,29.05
2023-01-22T09:58:37.535Z,28.30
2023-01-22T10:01:23.682Z,28.67
2023-01-22T10:04:22.088Z,30.73
2023-01-22T10:07:13.166Z,25.38
2023-01-22T10:10:07.065Z,22.15
2023-01-22T10:13:09.552Z,21.88
2023-01-22T10:15:56.510Z,19.02
2023-01-22T10:18:52.196Z,17.52
2023-01-22T10:21:43.961Z,17.02
2023-01-22T10:24:30.313Z,14.80
2023-01-22T10:27:17.776Z,15.63
2023-01-22T10:30:23.245Z,13.98
2023-01-22T10:33:17.204Z,12.73
2023-01-22T10:36:04.678Z,17.15
2023-01-22T10:38:50.870Z,11.60
2023-01-22T10:41:36.644Z,10.60
2023-01-22T10:44:25.445Z,11.68
2023-01-22T10:47:22.473Z,10.13
2023-01-22T10:50:16.342Z,9.68
2023-01-22T10:53:03.051Z,8.95
2023-01-22T10:55:58.181Z,11.70
2023-01-22T10:58:48.130Z,9.00
2023-01-22T11:01:37.980Z,9.80
2023-01-22T11:04:28.836Z,7.75
2023-01-22T11:07:20.132Z,7.55
2023-01-22T11:10:38.220Z,6.47
2023-01-22T11:14:05.694Z,5.85
2023-01-22T11:16:52.392Z,6.47
2023-01-22T11:19:47.843Z,7.90
2023-01-22T11:22:37.836Z,7.45
2023-01-22T11:25:23.877Z,5.78
2023-01-22T11:28:44.305Z,6.40
2023-01-22T11:31:42.549Z,6.60
2023-01-22T11:34:50.457Z,7.57
2023-01-22T11:38:10.477Z,9.15
2023-01-22T11:41:21.795Z,11.10
2023-01-22T11:44:22.052Z,9.02
2023-01-22T11:47:20.451Z,9.55
2023-01-22T11:50:09.573Z,11.13
2023-01-22T11:53:24.678Z,11.30
2023-01-22T11:56:32.109Z,10.15
2023-01-22T11:59:27.419Z,9.88
2023-01-22T12:02:32.191Z,8.23
2023-01-22T12:05:43.264Z,8.20
2023-01-22T12:08:47.575Z,9.60
2023-01-22T12:12:06.090Z,10.30
2023-01-22T12:15:01.202Z,15.05
2023-01-22T12:18:06.138Z,14.70
2023-01-22T12:21:07.233Z,13.98
2023-01-22T12:23:59.267Z,9.55
2023-01-22T12:26:52.425Z,9.20
2023-01-22T12:29:54.263Z,9.55
2023-01-22T12:32:43.262Z,10.88
2023-01-22T12:35:30.700Z,8.38
2023-01-22T12:38:42.548Z,8.20
2023-01-22T12:41:41.314Z,8.73
2023-01-22T12:44:36.149Z,7.50
2023-01-22T12:47:25.288Z,8.63
2023-01-22T12:50:20.769Z,10.95
2023-01-22T12:53:29.261Z,7.85
2023-01-22T12:56:15.189Z,7.13
2023-01-22T12:59:01.068Z,6.38
2023-01-22T13:01:46.991Z,7.10
2023-01-22T13:04:33.642Z,6.18
2023-01-22T13:07:22.648Z,6.43
2023-01-22T13:10:29.419Z,7.95
2023-01-22T13:13:40.412Z,8.82
2023-01-22T13:16:35.504Z,7.85
2023-01-22T13:19:24.565Z,8.55
2023-01-22T13:22:15.497Z,7.25
2023-01-22T13:25:01.314Z,7.90
2023-01-22T13:27:48.440Z,7.95
2023-01-22T13:30:34.922Z,8.50
2023-01-22T13:33:20.826Z,9.35
2023-01-22T13:36:11.122Z,13.10
2023-01-22T13:38:58.912Z,13.60
2023-01-22T13:41:44.873Z,18.42
2023-01-22T13:44:40.504Z,12.93
2023-01-22T13:47:32.986Z,12.95
2023-01-22T13:50:21.117Z,11.20
2023-01-22T13:53:06.839Z,9.95
2023-01-22T13:55:52.921Z,12.57
2023-01-22T13:58:48.371Z,11.30
2023-01-22T14:01:37.115Z,12.70
2023-01-22T14:04:34.782Z,10.15
2023-01-22T14:07:36.519Z,10.35
2023-01-22T14:10:24.637Z,13.50
2023-01-22T14:13:13.447Z,12.57
2023-01-22T14:16:02.046Z,14.07
2023-01-22T14:18:48.051Z,14.10
2023-01-22T14:21:34.440Z,10.70
2023-01-22T14:24:20.357Z,9.55
2023-01-22T14:27:07.170Z,13.40
2023-01-22T14:29:53.954Z,12.30
2023-01-22T14:32:40.793Z,14.32
2023-01-22T14:35:27.127Z,11.75
2023-01-22T14:38:13.289Z,11.57
2023-01-22T14:40:59.259Z,11.80
2023-01-22T14:43:45.028Z,18.10
2023-01-22T14:46:30.854Z,14.40
2023-01-22T14:49:16.757Z,12.27
2023-01-22T14:52:03.034Z,13.80
2023-01-22T14:54:50.564Z,12.27
2023-01-22T14:57:36.669Z,12.52
2023-01-22T15:00:22.755Z,13.02
2023-01-22T15:03:08.632Z,14.80
2023-01-22T15:05:54.431Z,16.23
2023-01-22T15:08:40.552Z,14.30
2023-01-22T15:11:26.522Z,13.85
2023-01-22T15:14:12.542Z,15.93
2023-01-22T15:16:58.430Z,15.45
2023-01-22T15:19:44.273Z,35.20
2023-01-22T15:22:30.108Z,24.95
2023-01-22T15:25:16.122Z,28.95
2023-01-22T15:28:02.983Z,40.38
2023-01-22T15:30:50.827Z,29.02
2023-01-22T15:33:37.817Z,31.02
2023-01-22T15:36:24.307Z,20.58
2023-01-22T15:39:10.135Z,17.33
2023-01-22T15:41:56.125Z,21.83
2023-01-22T15:44:42.152Z,27.45
2023-01-22T15:47:27.862Z,31.35
2023-01-22T15:50:20.225Z,15.80
2023-01-22T15:53:06.076Z,25.73
2023-01-22T15:55:51.757Z,13.25
2023-01-22T15:58:37.759Z,14.68
2023-01-22T16:01:25.742Z,13.93
2023-01-22T16:04:11.498Z,11.52
2023-01-22T16:06:57.344Z,13.32
2023-01-22T16:09:43.289Z,11.77
2023-01-22T16:12:31.177Z,13.75
2023-01-22T16:15:17.492Z,15.57
2023-01-22T16:18:03.804Z,13.05
2023-01-22T16:20:49.703Z,12.60
2023-01-22T16:23:39.992Z,12.95
2023-01-22T16:26:29.371Z,12.35
2023-01-22T16:29:15.606Z,14.15
2023-01-22T16:32:01.536Z,17.60
2023-01-22T16:34:47.475Z,19.20
2023-01-22T16:37:33.338Z,14.43
2023-01-22T16:40:19.370Z,11.77
2023-01-22T16:43:05.751Z,13.25
2023-01-22T16:45:51.778Z,14.95
2023-01-22T16:48:37.744Z,15.43
2023-01-22T16:51:25.156Z,12.52
2023-01-22T16:54:31.872Z,13.88
2023-01-22T16:57:19.384Z,13.85
2023-01-22T17:00:06.120Z,13.85
2023-01-22T17:02:52.439Z,13.52
2023-01-22T17:05:38.038Z,15.40
2023-01-22T17:08:24.408Z,16.00
2023-01-22T17:11:15.682Z,13.88
2023-01-22T17:14:01.812Z,14.50
2023-01-22T17:16:48.511Z,13.77
2023-01-22T17:19:35.948Z,14.45
2023-01-22T17:22:21.833Z,15.23
2023-01-22T17:25:08.327Z,20.92
2023-01-22T17:27:54.499Z,21.92
2023-01-22T17:30:40.407Z,23.08
2023-01-22T17:33:26.755Z,23.13
2023-01-22T17:36:15.572Z,21.13
2023-01-22T17:39:01.796Z,20.17
2023-01-22T17:41:47.757Z,17.98
2023-01-22T17:44:34.942Z,18.05
2023-01-22T17:47:21.313Z,16.42
2023-01-22T17:50:08.835Z,18.17
2023-01-22T17:52:55.879Z,18.42
2023-01-22T17:55:41.617Z,22.40
2023-01-22T17:58:27.423Z,20.92
2023-01-22T18:01:15.165Z,27.13
2023-01-22T18:04:03.554Z,21.17
2023-01-22T18:06:50.055Z,22.45
2023-01-22T18:09:36.248Z,24.45
2023-01-22T18:12:22.190Z,22.85
2023-01-22T18:15:08.412Z,21.52
2023-01-22T18:17:54.258Z,20.23
2023-01-22T18:20:44.314Z,17.13
2023-01-22T18:23:30.397Z,13.93
2023-01-22T18:26:19.867Z,15.73
2023-01-22T18:29:06.259Z,14.77
2023-01-22T18:31:52.435Z,14.43
2023-01-22T18:34:38.663Z,16.58
2023-01-22T18:37:24.455Z,17.63
2023-01-22T18:40:10.849Z,17.98
2023-01-22T18:42:57.349Z,18.33
2023-01-22T18:45:43.519Z,15.27
2023-01-22T18:48:29.480Z,14.20
2023-01-22T18:51:15.489Z,16.45
2023-01-22T18:54:03.012Z,18.00
2023-01-22T18:56:49.745Z,18.55
2023-01-22T18:59:35.995Z,16.85
2023-01-22T19:02:22.111Z,18.58
2023-01-22T19:05:08.513Z,18.27
2023-01-22T19:07:54.781Z,19.55
2023-01-22T19:10:40.709Z,20.50
2023-01-22T19:13:26.483Z,24.25
2023-01-22T19:16:14.940Z,18.80
2023-01-22T19:19:03.931Z,19.00
2023-01-22T19:21:54.796Z,19.25
2023-01-22T19:24:40.894Z,21.13
2023-01-22T19:27:26.731Z,14.68
2023-01-22T19:30:12.811Z,18.45
2023-01-22T19:32:58.884Z,17.13
2023-01-22T19:35:49.245Z,16.50
2023-01-22T19:38:35.294Z,16.45
2023-01-22T19:41:23.343Z,18.83
2023-01-22T19:44:10.911Z,17.90
2023-01-22T19:46:57.473Z,20.75
2023-01-22T19:49:43.874Z,19.55
2023-01-22T19:52:29.950Z,16.55
2023-01-22T19:55:18.451Z,15.60
2023-01-22T19:58:05.000Z,16.27
2023-01-22T20:00:51.540Z,17.73
2023-01-22T20:03:37.768Z,18.10
2023-01-22T20:06:24.049Z,17.73
2023-01-22T20:09:11.363Z,38.30
2023-01-22T20:11:58.273Z,49.88
2023-01-22T20:14:44.503Z,49.72
2023-01-22T20:17:30.602Z,46.08
2023-01-22T20:20:16.663Z,32.65
2023-01-22T20:23:02.944Z,40.90
2023-01-22T20:25:50.190Z,21.95
2023-01-22T20:28:36.639Z,22.05
2023-01-22T20:31:23.629Z,20.50
2023-01-22T20:34:09.920Z,17.77
2023-01-22T20:36:56.096Z,18.80
2023-01-22T20:39:41.945Z,20.92
2023-01-22T20:42:28.416Z,21.13
2023-01-22T20:45:14.720Z,17.20
2023-01-22T20:48:00.662Z,8.90
2023-01-22T20:50:46.363Z,5.63
2023-01-22T20:53:32.062Z,3.67
2023-01-22T20:56:25.425Z,3.70
2023-01-22T20:59:17.081Z,3.13
2023-01-22T21:02:03.059Z,2.70
2023-01-22T21:04:53.265Z,3.13
2023-01-22T21:07:39.621Z,3.25
2023-01-22T21:10:25.455Z,2.90
2023-01-22T21:13:12.665Z,3.28
2023-01-22T21:16:07.005Z,3.45
2023-01-22T21:18:55.044Z,3.72
2023-01-22T21:21:40.879Z,5.75
2023-01-22T21:24:27.726Z,4.43
2023-01-22T21:27:13.492Z,4.90
2023-01-22T21:29:59.309Z,6.78
2023-01-22T21:32:45.205Z,7.53
2023-01-22T21:35:31.223Z,10.23
2023-01-22T21:38:17.201Z,9.35
2023-01-22T21:41:07.796Z,9.57
2023-01-22T21:44:12.759Z,10.18
2023-01-22T21:46:59.212Z,9.38
2023-01-22T21:49:47.025Z,10.55
2023-01-22T21:52:33.266Z,10.07
2023-01-22T21:55:21.238Z,9.23
2023-01-22T21:58:08.942Z,10.02
2023-01-22T22:00:55.824Z,9.88
2023-01-22T22:03:42.064Z,9.07
2023-01-22T22:06:32.246Z,9.65
2023-01-22T22:09:21.933Z,5.68
2023-01-22T22:12:07.960Z,4.35
2023-01-22T22:14:53.803Z,4.05
2023-01-22T22:17:39.708Z,3.92
2023-01-22T22:20:25.560Z,4.00
2023-01-22T22:23:11.436Z,3.55
2023-01-22T22:25:57.834Z,3.47
2023-01-22T22:28:43.809Z,3.85
2023-01-22T22:31:29.685Z,3.78
2023-01-22T22:34:15.546Z,4.40
2023-01-22T22:37:01.534Z,4.70
2023-01-22T22:39:47.527Z,3.83
2023-01-22T22:42:33.796Z,4.10
2023-01-22T22:45:19.664Z,3.47
2023-01-22T22:48:05.777Z,3.65
2023-01-22T22:50:51.821Z,3.60
2023-01-22T22:53:37.635Z,4.47
2023-01-22T22:56:23.756Z,3.95
2023-01-22T22:59:10.025Z,3.58
2023-01-22T23:01:55.990Z,4.35
2023-01-22T23:04:41.905Z,4.82
2023-01-22T23:07:27.774Z,4.05
2023-01-22T23:10:28.810Z,4.18
2023-01-22T23:13:15.007Z,3.80
2023-01-22T23:16:02.974Z,3.97
2023-01-22T23:18:51.357Z,3.22
2023-01-22T23:21:41.012Z,4.22
2023-01-22T23:24:27.918Z,4.35
2023-01-22T23:27:14.224Z,3.88
2023-01-22T23:30:00.013Z,3.40
2023-01-22T23:32:45.780Z,3.95
2023-01-22T23:35:31.560Z,3.10
2023-01-22T23:38:17.249Z,3.00
2023-01-22T23:41:05.077Z,3.28
2023-01-22T23:43:51.358Z,2.60
2023-01-22T23:46:37.661Z,3.22
2023-01-22T23:49:23.850Z,3.83
2023-01-22T23:52:09.761Z,4.22
2023-01-22T23:54:57.999Z,4.03
2023-01-22T23:57:44.122Z,3.80
